createdAt,value
2023-02-11T00:03:09.006Z,15.75
2023-02-11T00:06:50.294Z,15.687
2023-02-11T00:10:31.534Z,15.625
2023-02-11T00:14:13.109Z,15.625
2023-02-11T00:17:54.694Z,15.562
2023-02-11T00:21:37.716Z,15.562
2023-02-11T00:25:18.835Z,15.562
2023-02-11T00:29:01.154Z,15.5
2023-02-11T00:32:43.590Z,15.5
2023-02-11T00:36:25.111Z,15.5
2023-02-11T00:40:06.878Z,15.437
2023-02-11T00:43:48.380Z,15.437
2023-02-11T00:47:30.622Z,15.375
2023-02-11T00:51:11.873Z,15.375
2023-02-11T00:54:56.252Z,15.375
2023-02-11T00:58:37.897Z,15.375
2023-02-11T01:03:08.899Z,15.312
2023-02-11T01:06:50.789Z,15.312
2023-02-11T01:10:31.737Z,15.312
2023-02-11T01:14:15.574Z,15.25
2023-02-11T01:17:57.401Z,15.25
2023-02-11T01:21:39.117Z,15.25
2023-02-11T01:25:20.425Z,15.25
2023-02-11T01:29:02.144Z,15.187
2023-02-11T01:32:43.839Z,15.187
2023-02-11T01:36:25.854Z,15.187
2023-02-11T01:40:07.028Z,15.187
2023-02-11T01:43:48.076Z,15.187
2023-02-11T01:47:30.510Z,15.125
2023-02-11T01:51:12.388Z,15.125
2023-02-11T01:54:53.725Z,15.125
2023-02-11T01:58:35.600Z,15.125
2023-02-11T02:03:07.513Z,15.125
2023-02-11T02:06:49.352Z,15.062
2023-02-11T02:10:30.794Z,15.062
2023-02-11T02:14:11.759Z,15.062
2023-02-11T02:17:56.520Z,15.062
2023-02-11T02:21:37.540Z,15.062
2023-02-11T02:25:18.197Z,15.062
2023-02-11T02:29:00.200Z,15.0
2023-02-11T02:32:42.453Z,15.0
2023-02-11T02:36:23.961Z,15.0
2023-02-11T02:40:04.953Z,15.0
2023-02-11T02:43:45.892Z,15.0
2023-02-11T02:47:28.039Z,15.0
2023-02-11T02:51:09.277Z,14.937
2023-02-11T02:54:49.992Z,14.937
2023-02-11T02:58:30.800Z,15.062
2023-02-11T03:03:07.428Z,15.187
2023-02-11T03:06:49.426Z,15.312
2023-02-11T03:10:34.177Z,15.375
2023-02-11T03:14:14.898Z,15.375
2023-02-11T03:17:56.757Z,15.312
2023-02-11T03:21:37.923Z,15.312
2023-02-11T03:25:19.115Z,15.312
2023-02-11T03:29:00.421Z,15.312
2023-02-11T03:32:42.965Z,15.25
2023-02-11T03:36:24.490Z,15.25
2023-02-11T03:40:06.023Z,15.187
2023-02-11T03:43:47.161Z,15.187
2023-02-11T03:47:30.036Z,15.125
2023-02-11T03:51:11.003Z,15.125
2023-02-11T03:54:51.851Z,15.125
2023-02-11T03:58:33.580Z,15.062
2023-02-11T04:03:07.986Z,15.062
2023-02-11T04:06:49.780Z,15.0
2023-02-11T04:10:31.747Z,15.0
2023-02-11T04:14:12.878Z,15.0
2023-02-11T04:17:54.951Z,14.937
2023-02-11T04:21:35.642Z,14.937
2023-02-11T04:25:16.913Z,15.062
2023-02-11T04:28:59.277Z,15.25
2023-02-11T04:32:41.499Z,15.375
2023-02-11T04:36:23.436Z,15.375
2023-02-11T04:40:04.212Z,15.375
2023-02-11T04:43:45.701Z,15.375
2023-02-11T04:47:28.143Z,15.375
2023-02-11T04:51:09.817Z,15.312
2023-02-11T04:54:50.918Z,15.312
2023-02-11T04:58:31.877Z,15.25
2023-02-11T05:03:07.989Z,15.25
2023-02-11T05:08:40.110Z,15.187
2023-02-11T05:12:22.909Z,15.187
2023-02-11T05:16:05.273Z,15.125
2023-02-11T05:19:49.211Z,15.125
2023-02-11T05:23:48.989Z,15.062
2023-02-11T05:27:31.520Z,15.062
2023-02-11T05:31:14.246Z,15.0
2023-02-11T05:34:56.270Z,15.0
2023-02-11T05:38:38.618Z,15.0
2023-02-11T05:42:20.544Z,14.937
2023-02-11T05:46:03.163Z,15.0
2023-02-11T05:49:45.334Z,15.25
2023-02-11T05:53:28.889Z,15.375
2023-02-11T05:57:11.366Z,15.437
2023-02-11T06:03:08.709Z,15.5
2023-02-11T06:06:50.913Z,15.437
2023-02-11T06:10:32.754Z,15.437
2023-02-11T06:14:14.486Z,15.375
2023-02-11T06:17:59.239Z,15.312
2023-02-11T06:21:44.147Z,15.312
2023-02-11T06:25:47.960Z,15.25
2023-02-11T06:29:31.557Z,15.25
2023-02-11T06:33:33.305Z,15.187
2023-02-11T06:37:16.109Z,15.125
2023-02-11T06:40:57.969Z,15.125
2023-02-11T06:44:40.911Z,15.125
2023-02-11T06:48:23.596Z,15.062
2023-02-11T06:52:05.162Z,15.062
2023-02-11T06:55:46.879Z,15.0
2023-02-11T06:59:29.078Z,15.0
2023-02-11T07:03:10.702Z,14.937
2023-02-11T07:06:52.917Z,15.0
2023-02-11T07:10:35.070Z,15.125
2023-02-11T07:14:17.020Z,15.25
2023-02-11T07:17:59.153Z,15.312
2023-02-11T07:21:44.399Z,15.375
2023-02-11T07:25:26.446Z,15.375
2023-02-11T07:29:09.547Z,15.375
2023-02-11T07:32:53.559Z,15.312
2023-02-11T07:36:36.203Z,15.312
2023-02-11T07:40:18.472Z,15.25
2023-02-11T07:44:04.659Z,15.25
2023-02-11T07:47:47.407Z,15.187
2023-02-11T07:51:32.293Z,15.187
2023-02-11T07:55:14.308Z,15.125
2023-02-11T07:58:56.498Z,15.125
2023-02-11T08:03:12.853Z,15.062
2023-02-11T08:06:56.543Z,15.062
2023-02-11T08:10:39.596Z,15.062
2023-02-11T08:14:22.271Z,15.062
2023-02-11T08:18:04.639Z,15.0
2023-02-11T08:21:46.895Z,15.0
2023-02-11T08:25:30.444Z,15.0
2023-02-11T08:29:12.492Z,14.937
2023-02-11T08:32:56.144Z,14.937
2023-02-11T08:36:37.944Z,15.187
2023-02-11T08:40:42.208Z,15.375
2023-02-11T08:44:24.180Z,15.437
2023-02-11T08:48:07.534Z,15.5
2023-02-11T08:51:49.547Z,15.437
2023-02-11T08:55:31.662Z,15.437
2023-02-11T08:59:13.693Z,15.437
2023-02-11T09:03:11.092Z,15.437
2023-02-11T09:06:53.397Z,15.375
2023-02-11T09:10:38.535Z,15.312
2023-02-11T09:14:24.696Z,15.312
2023-02-11T09:18:06.759Z,15.25
2023-02-11T09:21:52.288Z,15.25
2023-02-11T09:25:34.552Z,15.187
2023-02-11T09:29:16.979Z,15.187
2023-02-11T09:33:00.875Z,15.187
2023-02-11T09:36:42.790Z,15.187
2023-02-11T09:40:27.494Z,15.125
2023-02-11T09:44:09.041Z,15.125
2023-02-11T09:47:51.686Z,15.125
2023-02-11T09:51:36.634Z,15.125
2023-02-11T09:55:18.650Z,15.062
2023-02-11T09:59:19.141Z,15.062
2023-02-11T10:03:08.209Z,15.062
2023-02-11T10:06:50.208Z,15.125
2023-02-11T10:10:31.762Z,15.125
2023-02-11T10:14:26.399Z,15.125
2023-02-11T10:18:08.505Z,15.187
2023-02-11T10:21:52.075Z,15.187
2023-02-11T10:25:33.506Z,15.125
2023-02-11T10:29:16.504Z,15.125
2023-02-11T10:32:59.898Z,15.125
2023-02-11T10:36:42.073Z,15.125
2023-02-11T10:40:23.995Z,15.187
2023-02-11T10:44:05.246Z,15.5
2023-02-11T10:47:47.140Z,15.437
2023-02-11T10:51:29.209Z,15.312
2023-02-11T10:55:10.692Z,15.187
2023-02-11T10:58:51.984Z,15.187
2023-02-11T11:03:17.101Z,15.125
2023-02-11T11:06:59.052Z,15.125
2023-02-11T11:10:40.913Z,15.062
2023-02-11T11:14:23.293Z,15.062
2023-02-11T11:18:20.597Z,15.062
2023-02-11T11:22:04.010Z,15.062
2023-02-11T11:25:45.556Z,15.062
2023-02-11T11:29:27.332Z,15.062
2023-02-11T11:33:10.404Z,15.062
2023-02-11T11:36:51.713Z,15.062
2023-02-11T11:40:34.407Z,15.062
2023-02-11T11:44:16.349Z,15.062
2023-02-11T11:47:58.360Z,15.125
2023-02-11T11:51:40.252Z,15.187
2023-02-11T11:55:21.568Z,15.25
2023-02-11T11:59:03.569Z,15.25
2023-02-11T12:03:08.110Z,15.312
2023-02-11T12:06:49.749Z,15.312
2023-02-11T12:10:31.381Z,15.375
2023-02-11T12:14:15.735Z,15.437
2023-02-11T12:17:57.681Z,15.437
2023-02-11T12:21:42.603Z,15.437
2023-02-11T12:25:23.837Z,15.5
2023-02-11T12:29:05.652Z,15.562
2023-02-11T12:32:49.615Z,15.625
2023-02-11T12:36:30.960Z,15.75
2023-02-11T12:40:12.306Z,15.75
2023-02-11T12:43:53.328Z,15.812
2023-02-11T12:47:35.888Z,15.812
2023-02-11T12:51:20.195Z,15.75
2023-02-11T12:55:02.036Z,15.687
2023-02-11T12:58:56.485Z,15.625
2023-02-11T13:03:08.356Z,15.625
2023-02-11T13:06:50.047Z,15.625
2023-02-11T13:10:31.909Z,15.562
2023-02-11T13:14:13.612Z,15.562
2023-02-11T13:17:55.530Z,15.5
2023-02-11T13:21:37.526Z,15.437
2023-02-11T13:25:22.894Z,15.375
2023-02-11T13:29:05.263Z,15.375
2023-02-11T13:32:50.107Z,15.375
2023-02-11T13:36:32.993Z,15.375
2023-02-11T13:40:14.879Z,15.375
2023-02-11T13:43:56.671Z,15.375
2023-02-11T13:47:39.494Z,15.375
2023-02-11T13:51:23.418Z,15.375
2023-02-11T13:55:08.417Z,15.375
2023-02-11T13:58:50.347Z,15.375
2023-02-11T14:03:09.197Z,15.437
2023-02-11T14:06:50.490Z,15.437
2023-02-11T14:10:32.303Z,15.5
2023-02-11T14:14:14.334Z,15.562
2023-02-11T14:18:18.602Z,15.687
2023-02-11T14:22:00.621Z,15.812
2023-02-11T14:25:42.343Z,15.937
2023-02-11T14:29:24.821Z,16.0
2023-02-11T14:33:08.141Z,16.062
2023-02-11T14:36:50.036Z,16.125
2023-02-11T14:40:35.071Z,16.062
2023-02-11T14:44:18.557Z,16.062
2023-02-11T14:48:01.592Z,16.0
2023-02-11T14:51:45.215Z,16.0
2023-02-11T14:55:26.864Z,16.0
2023-02-11T14:59:08.448Z,15.937
2023-02-11T15:03:09.125Z,15.812
2023-02-11T15:06:50.611Z,15.687
2023-02-11T15:10:34.894Z,15.625
2023-02-11T15:14:16.416Z,15.625
2023-02-11T15:17:58.684Z,15.562
2023-02-11T15:21:40.678Z,15.5
2023-02-11T15:25:22.743Z,15.5
2023-02-11T15:29:05.832Z,15.5
2023-02-11T15:32:50.590Z,15.437
2023-02-11T15:36:31.889Z,15.437
2023-02-11T15:40:17.530Z,15.437
2023-02-11T15:44:17.680Z,15.375
2023-02-11T15:48:00.192Z,15.375
2023-02-11T15:51:44.436Z,15.312
2023-02-11T15:55:26.015Z,15.312
2023-02-11T15:59:07.929Z,15.312
2023-02-11T16:03:09.255Z,15.25
2023-02-11T16:06:51.634Z,15.25
2023-02-11T16:10:34.017Z,15.25
2023-02-11T16:14:15.654Z,15.25
2023-02-11T16:17:58.042Z,15.187
2023-02-11T16:21:58.168Z,15.187
2023-02-11T16:25:39.856Z,15.187
2023-02-11T16:29:22.121Z,15.187
2023-02-11T16:33:05.573Z,15.125
2023-02-11T16:36:47.105Z,15.125
2023-02-11T16:40:29.026Z,15.125
2023-02-11T16:44:10.427Z,15.125
2023-02-11T16:47:53.260Z,15.125
2023-02-11T16:51:37.113Z,15.062
2023-02-11T16:55:18.705Z,15.062
2023-02-11T16:59:05.772Z,15.062
2023-02-11T17:03:12.038Z,15.062
2023-02-11T17:08:52.204Z,15.062
2023-02-11T17:12:36.017Z,15.0
2023-02-11T17:16:19.270Z,15.0
2023-02-11T17:20:02.321Z,15.0
2023-02-11T17:23:44.247Z,15.0
2023-02-11T17:27:26.832Z,15.0
2023-02-11T17:31:09.764Z,15.0
2023-02-11T17:34:53.025Z,15.0
2023-02-11T17:38:35.054Z,15.0
2023-02-11T17:42:17.124Z,15.0
2023-02-11T17:46:00.511Z,15.0
2023-02-11T17:49:42.601Z,15.062
2023-02-11T17:53:25.007Z,15.125
2023-02-11T17:57:06.725Z,15.187
2023-02-11T18:03:09.122Z,15.187
2023-02-11T18:06:51.724Z,15.187
2023-02-11T18:10:33.313Z,15.187
2023-02-11T18:14:15.636Z,15.187
2023-02-11T18:17:58.305Z,15.187
2023-02-11T18:21:40.609Z,15.187
2023-02-11T18:25:28.253Z,15.187
2023-02-11T18:29:12.439Z,15.187
2023-02-11T18:32:55.167Z,15.187
2023-02-11T18:36:39.295Z,15.312
2023-02-11T18:40:21.315Z,15.562
2023-02-11T18:44:03.649Z,15.937
2023-02-11T18:47:46.781Z,16.375
2023-02-11T18:51:29.872Z,16.75
2023-02-11T18:55:11.908Z,17.375
2023-02-11T18:58:54.532Z,17.812
2023-02-11T19:03:08.972Z,18.187
2023-02-11T19:06:51.284Z,18.375
2023-02-11T19:10:35.855Z,18.5
2023-02-11T19:14:17.854Z,18.312
2023-02-11T19:18:03.789Z,18.25
2023-02-11T19:21:45.509Z,18.062
2023-02-11T19:25:27.492Z,17.812
2023-02-11T19:29:10.463Z,17.812
2023-02-11T19:32:53.560Z,18.062
2023-02-11T19:36:36.093Z,18.312
2023-02-11T19:40:18.196Z,18.25
2023-02-11T19:44:02.878Z,18.0
2023-02-11T19:47:45.790Z,17.875
2023-02-11T19:51:27.250Z,17.937
2023-02-11T19:55:09.363Z,18.125
2023-02-11T19:58:54.435Z,18.25
2023-02-11T20:03:09.233Z,18.187
2023-02-11T20:06:51.460Z,18.125
2023-02-11T20:10:34.379Z,17.937
2023-02-11T20:14:16.537Z,17.875
2023-02-11T20:18:20.865Z,18.0
2023-02-11T20:22:06.953Z,18.125
2023-02-11T20:25:48.611Z,18.187
2023-02-11T20:29:31.148Z,18.125
2023-02-11T20:33:16.642Z,17.937
2023-02-11T20:36:59.112Z,17.937
2023-02-11T20:40:41.335Z,18.0
2023-02-11T20:44:26.733Z,18.187
2023-02-11T20:48:10.486Z,18.125
2023-02-11T20:51:52.867Z,18.062
2023-02-11T20:55:34.779Z,18.0
2023-02-11T20:59:19.685Z,17.875
2023-02-11T21:03:08.917Z,17.875
2023-02-11T21:06:51.011Z,18.062
2023-02-11T21:10:35.074Z,18.187
2023-02-11T21:14:19.549Z,18.25
2023-02-11T21:18:02.268Z,18.187
2023-02-11T21:21:45.000Z,18.125
2023-02-11T21:25:27.147Z,18.0
2023-02-11T21:29:13.002Z,17.75
2023-02-11T21:32:56.336Z,17.75
2023-02-11T21:36:39.049Z,17.937
2023-02-11T21:40:23.129Z,18.062
2023-02-11T21:44:05.550Z,18.25
2023-02-11T21:47:48.670Z,18.25
2023-02-11T21:51:31.125Z,18.125
2023-02-11T21:55:12.993Z,18.0
2023-02-11T21:58:54.896Z,17.937
2023-02-11T22:03:10.681Z,18.0
2023-02-11T22:06:52.916Z,18.125
2023-02-11T22:10:35.108Z,18.125
2023-02-11T22:14:17.817Z,18.125
2023-02-11T22:18:04.978Z,18.062
2023-02-11T22:21:46.997Z,18.0
2023-02-11T22:25:28.902Z,17.875
2023-02-11T22:29:13.039Z,17.75
2023-02-11T22:32:56.520Z,17.625
2023-02-11T22:36:40.780Z,17.5
2023-02-11T22:40:22.824Z,17.375
2023-02-11T22:44:04.894Z,17.312
2023-02-11T22:47:48.383Z,17.187
2023-02-11T22:51:30.193Z,17.125
2023-02-11T22:55:12.261Z,17.125
2023-02-11T22:58:54.524Z,17.125
2023-02-11T23:03:10.176Z,17.062
2023-02-11T23:06:52.327Z,17.0
2023-02-11T23:10:34.357Z,16.937
2023-02-11T23:14:16.155Z,16.875
2023-02-11T23:18:01.240Z,16.875
2023-02-11T23:21:44.922Z,16.812
2023-02-11T23:25:27.292Z,16.75
2023-02-11T23:29:09.561Z,16.687
2023-02-11T23:32:52.527Z,16.687
2023-02-11T23:36:34.999Z,16.625
2023-02-11T23:40:17.321Z,16.625
2023-02-11T23:44:02.117Z,16.625
2023-02-11T23:47:44.957Z,16.562
2023-02-11T23:51:29.278Z,16.562
2023-02-11T23:55:10.873Z,16.5
2023-02-11T23:58:53.251Z,16.437
